Time;durP1;ratioP1;P1;durP2;ratioP2;P2;SDS_P1;SDS_P2;PMS_P1;PMS_P2;Temp;Humidity;BMP_temperature;BMP_pressure;BME280_temperature;BME280_humidity;BME280_pressure;Samples;Min_cycle;Max_cycle;Signal;HPM_P1;HPM_P2
2023/01/03 00:01:21;;;;;;;6.25;1.80;;;5.30;90.20;;;;;;5032037;28;20155;-44
2023/01/03 00:03:48;;;;;;;6.25;1.80;;;5.30;90.10;;;;;;5032056;28;20025;-43
2023/01/03 00:06:19;;;;;;;8.43;1.75;;;5.30;90.00;;;;;;5033771;28;20094;-43
2023/01/03 00:08:46;;;;;;;8.10;2.03;;;5.20;89.90;;;;;;5032222;28;20450;-50
2023/01/03 00:12:22;;;;;;;8.38;1.77;;;5.20;89.80;;;;;;5032317;28;20037;-45
2023/01/03 00:14:11;;;;;;;8.52;1.90;;;5.20;89.90;;;;;;5031161;28;20056;-45
2023/01/03 00:16:38;;;;;;;14.88;3.03;;;5.20;89.70;;;;;;5033144;28;20168;-46
2023/01/03 00:19:07;;;;;;;6.63;2.28;;;5.10;89.60;;;;;;5029211;28;20026;-45
2023/01/03 00:21:35;;;;;;;7.70;1.93;;;5.10;89.70;;;;;;5026771;28;20065;-43
2023/01/03 00:24:02;;;;;;;5.55;1.83;;;5.10;89.50;;;;;;5022152;28;20347;-45
2023/01/03 00:26:28;;;;;;;5.60;1.83;;;5.10;89.50;;;;;;5022539;28;20026;-43
2023/01/03 00:28:54;;;;;;;5.38;1.27;;;5.10;89.50;;;;;;5020994;28;20447;-43
2023/01/03 00:31:21;;;;;;;8.93;1.75;;;5.10;89.60;;;;;;5022540;28;20045;-44
2023/01/03 00:33:48;;;;;;;8.00;1.92;;;5.10;89.30;;;;;;5021190;28;20060;-44
2023/01/03 00:36:15;;;;;;;8.75;2.33;;;5.10;89.30;;;;;;5022497;28;20033;-46
2023/01/03 00:38:40;;;;;;;4.88;1.55;;;5.10;89.30;;;;;;5032218;28;20439;-44
2023/01/03 00:41:13;;;;;;;10.32;1.95;;;5.10;89.10;;;;;;5031183;28;20087;-44
2023/01/03 00:43:41;;;;;;;4.80;1.50;;;5.10;89.10;;;;;;5032360;28;20030;-46
2023/01/03 00:46:10;;;;;;;6.95;1.52;;;5.00;88.70;;;;;;5031398;28;20028;-44
2023/01/03 00:48:38;;;;;;;6.45;1.38;;;5.00;88.70;;;;;;5031790;28;20030;-44
2023/01/03 00:51:16;;;;;;;8.40;1.77;;;5.00;88.30;;;;;;5026352;28;20025;-48
2023/01/03 00:53:45;;;;;;;6.90;1.67;;;5.00;88.30;;;;;;5022936;28;20029;-44
2023/01/03 00:56:16;;;;;;;8.00;1.48;;;5.00;88.30;;;;;;5022748;28;20075;-43
2023/01/03 00:58:43;;;;;;;6.40;1.50;;;5.00;88.20;;;;;;5019200;28;20033;-44
2023/01/03 01:01:29;;;;;;;6.68;1.42;;;5.00;88.20;;;;;;5023665;28;20030;-44
2023/01/03 01:04:19;;;;;;;8.35;1.65;;;4.90;88.10;;;;;;5022940;28;20100;-44
2023/01/03 01:06:55;;;;;;;4.25;1.05;;;4.90;88.00;;;;;;5022904;28;20053;-45
2023/01/03 01:09:25;;;;;;;11.95;1.45;;;4.90;88.10;;;;;;5024518;28;20021;-48
2023/01/03 01:11:54;;;;;;;6.18;1.33;;;4.90;87.80;;;;;;5020066;28;20420;-46
2023/01/03 01:14:27;;;;;;;8.18;1.48;;;4.80;87.60;;;;;;5024816;28;20060;-43
2023/01/03 01:16:59;;;;;;;7.95;1.45;;;4.80;87.50;;;;;;5032294;28;20409;-46
2023/01/03 01:19:31;;;;;;;7.93;1.42;;;4.70;87.30;;;;;;5030121;28;20061;-43
2023/01/03 01:21:59;;;;;;;5.88;1.48;;;4.70;87.30;;;;;;5026602;28;20140;-49
2023/01/03 01:24:26;;;;;;;6.57;1.90;;;4.70;87.40;;;;;;5031531;28;20029;-43
2023/01/03 01:26:53;;;;;;;7.85;1.48;;;4.60;87.30;;;;;;5021858;28;20355;-43
2023/01/03 01:29:20;;;;;;;5.07;1.17;;;4.60;87.40;;;;;;5018817;28;20393;-44
2023/01/03 01:31:47;;;;;;;7.15;1.38;;;4.60;87.20;;;;;;5031263;28;20084;-43
2023/01/03 01:34:17;;;;;;;9.27;1.25;;;4.60;87.00;;;;;;5032290;28;20478;-44
2023/01/03 01:36:46;;;;;;;5.80;1.55;;;4.50;87.10;;;;;;5045316;28;20507;-43
2023/01/03 01:39:30;;;;;;;6.32;1.20;;;4.50;87.10;;;;;;5052479;28;20033;-43
2023/01/03 01:45:05;;;;;;;8.95;1.92;;;4.40;87.00;;;;;;5030243;28;20036;-46
2023/01/03 01:47:40;;;;;;;6.97;1.30;;;4.40;87.00;;;;;;5030014;28;20017;-46
2023/01/03 01:50:30;;;;;;;3.28;0.93;;;4.40;87.00;;;;;;5044150;28;20029;-44
2023/01/03 01:53:08;;;;;;;10.30;1.63;;;4.30;86.90;;;;;;5051399;28;20032;-44
2023/01/03 01:55:57;;;;;;;7.00;1.10;;;4.30;87.10;;;;;;5040717;28;20116;-44
2023/01/03 01:58:30;;;;;;;8.93;2.45;;;4.20;87.10;;;;;;5023474;28;20032;-46
2023/01/03 02:00:58;;;;;;;8.10;1.10;;;4.20;87.10;;;;;;5027771;28;20382;-47
2023/01/03 02:03:25;;;;;;;4.82;1.40;;;4.10;87.40;;;;;;5022434;28;20026;-46
2023/01/03 02:05:56;;;;;;;8.02;1.55;;;4.10;87.50;;;;;;5022072;28;20478;-46
2023/01/03 02:08:23;;;;;;;9.73;2.85;;;4.00;87.40;;;;;;5025105;28;20040;-45
2023/01/03 02:11:11;;;;;;;4.45;1.40;;;4.00;87.40;;;;;;5021068;28;20030;-43
2023/01/03 02:13:58;;;;;;;5.13;1.10;;;3.90;87.80;;;;;;5030725;28;20124;-45
2023/01/03 02:16:47;;;;;;;4.85;1.38;;;3.90;87.70;;;;;;5034053;28;20025;-47
2023/01/03 02:19:45;;;;;;;9.73;2.47;;;3.90;87.50;;;;;;5023653;28;20038;-48
2023/01/03 02:22:30;;;;;;;6.85;1.90;;;3.90;87.80;;;;;;5025613;28;20025;-44
2023/01/03 02:25:20;;;;;;;8.77;1.45;;;3.90;87.80;;;;;;5024870;28;20648;-45
2023/01/03 02:28:04;;;;;;;3.65;1.48;;;3.90;87.90;;;;;;5030579;28;20029;-48
2023/01/03 02:30:43;;;;;;;4.85;1.67;;;3.80;87.70;;;;;;5028362;28;20014;-45
2023/01/03 02:33:50;;;;;;;5.53;1.75;;;3.80;87.70;;;;;;5025514;28;20029;-46
2023/01/03 02:36:27;;;;;;;2.95;1.10;;;3.70;87.90;;;;;;5033633;28;20035;-44
2023/01/03 02:39:08;;;;;;;7.10;1.33;;;3.70;88.10;;;;;;5026042;28;20037;-45
2023/01/03 02:42:56;;;;;;;3.58;1.65;;;3.70;88.10;;;;;;5025134;28;20037;-46
2023/01/03 02:44:48;;;;;;;8.40;1.65;;;3.70;88.00;;;;;;5029564;28;20052;-47
2023/01/03 02:47:21;;;;;;;4.47;1.92;;;3.70;88.00;;;;;;5034881;28;20056;-43
2023/01/03 02:49:51;;;;;;;3.95;1.40;;;3.70;88.00;;;;;;5034463;28;20037;-44
2023/01/03 02:52:26;;;;;;;9.02;2.05;;;3.70;88.10;;;;;;5035205;28;20033;-45
2023/01/03 02:55:00;;;;;;;9.85;3.75;;;3.60;88.10;;;;;;5046303;28;20035;-44
2023/01/03 02:58:01;;;;;;;7.03;1.90;;;3.70;88.30;;;;;;5039119;28;20331;-45
2023/01/03 03:00:31;;;;;;;10.68;3.58;;;3.60;88.30;;;;;;5022293;28;20037;-47
2023/01/03 03:03:05;;;;;;;4.45;1.45;;;3.60;88.30;;;;;;5028319;28;20435;-44
2023/01/03 03:05:38;;;;;;;7.68;2.33;;;3.60;88.60;;;;;;5022462;28;20041;-47
2023/01/03 03:08:05;;;;;;;7.32;2.17;;;3.60;88.60;;;;;;5026775;28;20439;-44
2023/01/03 03:13:46;;;;;;;6.97;2.58;;;3.50;89.00;;;;;;5025314;28;20100;-45
2023/01/03 03:25:29;;;;;;;5.53;2.58;;;3.50;89.20;;;;;;5053247;28;20040;-45
2023/01/03 03:30:51;;;;;;;8.18;4.60;;;3.40;89.20;;;;;;5024751;28;20125;-46
2023/01/03 03:33:20;;;;;;;6.90;2.70;;;3.40;89.40;;;;;;5022629;28;20071;-45
2023/01/03 03:36:07;;;;;;;7.25;3.40;;;3.40;89.30;;;;;;5021642;28;20037;-47
2023/01/03 03:38:39;;;;;;;10.15;3.25;;;3.40;89.50;;;;;;5023739;28;20494;-47
2023/01/03 03:47:52;;;;;;;7.50;2.90;;;3.30;89.50;;;;;;5034276;28;20095;-45
2023/01/03 03:50:36;;;;;;;6.22;2.90;;;3.30;89.70;;;;;;5032042;28;20045;-45
2023/01/03 03:53:09;;;;;;;11.35;2.70;;;3.30;89.70;;;;;;5032834;28;20040;-46
2023/01/03 03:55:52;;;;;;;14.60;3.25;;;3.20;89.50;;;;;;5028612;28;20044;-47
2023/01/03 03:58:25;;;;;;;7.50;2.47;;;3.30;89.50;;;;;;5030039;28;20071;-46
2023/01/03 04:00:55;;;;;;;5.15;2.17;;;3.30;89.50;;;;;;5029375;28;20021;-49
2023/01/03 04:03:22;;;;;;;;;;;3.30;89.30;;;;;;5051212;28;20033;-45
2023/01/03 04:06:01;;;;;;;8.60;2.22;;;3.30;89.20;;;;;;5033897;28;20235;-48
2023/01/03 04:08:28;;;;;;;4.93;1.70;;;3.30;89.00;;;;;;5032368;28;20113;-46
2023/01/03 04:11:04;;;;;;;6.65;2.08;;;3.20;88.90;;;;;;5027187;28;20564;-44
2023/01/03 04:13:32;;;;;;;5.15;2.15;;;3.30;88.80;;;;;;5024800;28;20031;-45
2023/01/03 04:16:00;;;;;;;5.65;1.63;;;3.30;88.60;;;;;;5032375;28;20478;-44
2023/01/03 04:18:27;;;;;;;8.57;1.75;;;3.30;88.40;;;;;;5033134;28;20021;-45
2023/01/03 04:20:54;;;;;;;6.30;1.73;;;3.30;88.30;;;;;;5033690;28;20033;-44
2023/01/03 04:23:22;;;;;;;5.90;1.48;;;3.30;88.20;;;;;;5031750;28;20041;-44
2023/01/03 04:25:49;;;;;;;6.80;1.57;;;3.30;88.00;;;;;;5023653;28;20394;-44
2023/01/03 04:28:16;;;;;;;5.78;1.52;;;3.30;88.00;;;;;;5024369;28;20026;-47
2023/01/03 04:30:43;;;;;;;5.03;2.17;;;3.30;87.90;;;;;;5020066;28;20029;-45
2023/01/03 04:33:11;;;;;;;5.25;1.90;;;3.30;87.60;;;;;;5023947;28;20037;-49
2023/01/03 04:35:40;;;;;;;4.28;1.80;;;3.20;87.80;;;;;;5019498;28;20105;-45
2023/01/03 04:38:08;;;;;;;6.63;1.90;;;3.20;87.70;;;;;;5020139;28;20030;-44
2023/01/03 04:40:37;;;;;;;4.53;2.10;;;3.20;87.60;;;;;;5022937;28;20025;-48
2023/01/03 04:45:49;;;;;;;6.75;1.55;;;3.20;87.70;;;;;;5019932;28;20099;-47
2023/01/03 04:48:16;;;;;;;10.20;1.58;;;3.20;87.70;;;;;;5022750;28;20079;-44
2023/01/03 04:50:55;;;;;;;4.78;1.92;;;3.10;88.00;;;;;;5022925;28;20032;-44
2023/01/03 04:53:24;;;;;;;5.35;1.67;;;3.20;88.00;;;;;;5026635;28;20363;-44
2023/01/03 04:55:52;;;;;;;;;;;3.10;87.80;;;;;;5032498;28;20037;-44
2023/01/03 04:58:19;;;;;;;5.60;1.42;;;3.10;87.80;;;;;;5026215;28;19909;-47
2023/01/03 05:00:46;;;;;;;4.85;1.90;;;3.00;87.70;;;;;;5016884;28;20037;-47
2023/01/03 05:03:15;;;;;;;5.53;1.88;;;3.00;87.80;;;;;;5035428;28;20025;-44
2023/01/03 05:05:42;;;;;;;7.85;1.77;;;2.90;87.90;;;;;;5036060;28;20336;-47
2023/01/03 05:08:11;;;;;;;5.22;1.98;;;2.90;88.10;;;;;;5032851;28;20030;-49
2023/01/03 05:10:39;;;;;;;7.10;1.85;;;2.90;88.10;;;;;;5032419;28;20033;-44
2023/01/03 05:13:11;;;;;;;5.63;1.80;;;2.90;88.20;;;;;;5026886;28;20101;-44
2023/01/03 05:15:38;;;;;;;4.05;1.52;;;2.80;88.50;;;;;;5012480;28;20471;-46
2023/01/03 05:18:05;;;;;;;8.18;2.30;;;2.80;88.50;;;;;;5015860;28;20036;-47
2023/01/03 05:26:09;;;;;;;7.38;2.28;;;2.70;88.70;;;;;;5021446;28;20032;-44
2023/01/03 05:28:36;;;;;;;9.75;2.15;;;2.70;88.60;;;;;;5023127;28;20029;-45
2023/01/03 05:31:02;;;;;;;3.75;2.05;;;2.70;88.80;;;;;;5025650;28;20055;-48
2023/01/03 05:33:29;;;;;;;10.00;2.42;;;2.70;88.70;;;;;;5028136;28;20040;-47
2023/01/03 05:35:57;;;;;;;7.28;1.95;;;2.60;88.90;;;;;;5031728;28;20045;-45
2023/01/03 05:38:26;;;;;;;5.22;2.35;;;2.60;89.00;;;;;;5032634;28;20033;-45
2023/01/03 05:40:51;;;;;;;9.85;2.35;;;2.60;89.00;;;;;;5032453;28;20033;-49
2023/01/03 05:43:21;;;;;;;5.35;2.38;;;2.60;88.80;;;;;;5043095;28;20103;-45
2023/01/03 05:45:52;;;;;;;8.18;1.90;;;2.60;88.90;;;;;;5031566;28;20029;-44
2023/01/03 05:48:20;;;;;;;11.02;4.38;;;2.60;88.90;;;;;;5032298;28;20056;-47
2023/01/03 05:50:46;;;;;;;8.90;2.80;;;2.60;88.80;;;;;;5031273;28;20478;-46
2023/01/03 05:53:12;;;;;;;3.50;2.17;;;2.60;88.80;;;;;;5056170;28;20044;-46
2023/01/03 05:55:38;;;;;;;5.15;2.42;;;2.60;88.80;;;;;;5049864;28;20535;-46
2023/01/03 05:58:06;;;;;;;11.35;3.25;;;2.60;88.90;;;;;;5039689;28;20060;-47
2023/01/03 06:00:33;;;;;;;6.65;2.83;;;2.50;88.70;;;;;;5023578;28;20030;-46
2023/01/03 06:02:59;;;;;;;3.70;2.25;;;2.40;88.80;;;;;;5025806;28;20092;-47
2023/01/03 06:05:26;;;;;;;6.57;2.90;;;2.40;89.00;;;;;;5023367;28;20152;-45
2023/01/03 06:07:53;;;;;;;7.82;3.40;;;2.40;89.00;;;;;;5022658;28;20715;-45
2023/01/03 06:10:22;;;;;;;5.25;2.53;;;2.40;88.90;;;;;;5025457;28;20060;-45
2023/01/03 06:12:49;;;;;;;7.30;3.03;;;2.40;89.10;;;;;;5026336;28;20038;-45
2023/01/03 06:15:16;;;;;;;7.78;3.20;;;2.40;89.10;;;;;;5021209;28;20033;-47
2023/01/03 06:17:58;;;;;;;9.35;3.10;;;2.30;89.10;;;;;;5033167;28;20329;-45
2023/01/03 06:20:29;;;;;;;11.32;2.83;;;2.30;89.20;;;;;;5035852;28;20037;-49
2023/01/03 06:22:55;;;;;;;7.13;2.70;;;2.30;89.40;;;;;;5032491;28;20336;-46
2023/01/03 06:25:21;;;;;;;9.95;2.72;;;2.30;89.40;;;;;;5026485;28;20030;-45
2023/01/03 06:27:50;;;;;;;7.10;2.72;;;2.30;89.40;;;;;;5026490;28;20149;-45
2023/01/03 06:30:17;;;;;;;9.95;3.13;;;2.20;89.40;;;;;;5023761;28;20033;-44
2023/01/03 06:32:44;;;;;;;11.98;2.90;;;2.20;89.50;;;;;;5026403;28;20033;-44
2023/01/03 06:35:11;;;;;;;5.82;3.80;;;2.20;89.70;;;;;;5024646;28;20025;-48
2023/01/03 06:37:38;;;;;;;8.52;3.83;;;2.20;89.80;;;;;;5025603;28;20060;-45
2023/01/03 06:40:08;;;;;;;7.60;3.20;;;2.20;89.80;;;;;;5025863;28;20030;-46
2023/01/03 06:42:38;;;;;;;7.07;3.22;;;2.20;90.00;;;;;;5025181;28;20025;-46
2023/01/03 06:53:35;;;;;;;10.20;4.25;;;2.20;90.20;;;;;;5027314;28;20044;-44
2023/01/03 06:56:03;;;;;;;10.93;4.97;;;2.30;90.40;;;;;;5024091;28;20029;-45
2023/01/03 06:58:29;;;;;;;12.93;5.32;;;2.20;90.50;;;;;;5025249;28;20034;-47
2023/01/03 07:00:58;;;;;;;9.73;5.03;;;2.30;90.50;;;;;;5023868;28;20335;-45
2023/01/03 07:03:27;;;;;;;9.52;5.10;;;2.20;90.50;;;;;;5022432;28;20058;-46
2023/01/03 07:05:56;;;;;;;11.77;5.43;;;2.20;90.70;;;;;;5028177;28;20041;-47
2023/01/03 07:08:23;;;;;;;12.27;5.72;;;2.20;90.80;;;;;;5034996;28;20439;-43
2023/01/03 07:10:50;;;;;;;7.80;5.05;;;2.20;90.80;;;;;;5032645;28;20037;-44
2023/01/03 07:16:02;;;;;;;8.95;5.35;;;2.30;91.00;;;;;;5038258;28;20121;-44
2023/01/03 07:18:28;;;;;;;12.95;6.28;;;2.30;91.00;;;;;;5034244;28;20033;-44
2023/01/03 07:20:55;;;;;;;13.57;5.97;;;2.30;91.10;;;;;;5033093;28;20035;-46
2023/01/03 07:23:26;;;;;;;14.30;5.93;;;2.30;91.10;;;;;;5032779;28;20037;-46
2023/01/03 07:25:55;;;;;;;9.68;5.25;;;2.20;91.10;;;;;;5017634;28;20105;-48
2023/01/03 07:28:22;;;;;;;19.30;7.25;;;2.30;91.20;;;;;;5033205;28;20108;-46
2023/01/03 07:30:49;;;;;;;14.98;6.10;;;2.20;91.10;;;;;;5041453;28;20049;-45
2023/01/03 07:33:19;;;;;;;11.20;6.00;;;2.20;91.20;;;;;;5017326;28;20065;-45
2023/01/03 07:35:46;;;;;;;9.57;5.80;;;2.30;91.20;;;;;;5016352;28;20656;-47
2023/01/03 07:38:13;;;;;;;9.95;6.13;;;2.30;91.30;;;;;;5033970;28;20076;-43
2023/01/03 07:40:40;;;;;;;9.63;6.47;;;2.20;91.20;;;;;;5033818;28;20029;-46
2023/01/03 07:46:05;;;;;;;9.70;6.15;;;2.20;91.20;;;;;;5034912;28;20087;-47
2023/01/03 07:48:35;;;;;;;13.07;6.70;;;2.20;91.30;;;;;;5053771;28;20075;-43
2023/01/03 07:51:02;;;;;;;12.93;6.95;;;2.20;91.40;;;;;;5044807;28;20026;-47
2023/01/03 07:53:34;;;;;;;11.02;6.13;;;2.30;91.40;;;;;;5031095;28;20033;-48
2023/01/03 07:56:05;;;;;;;11.73;6.43;;;2.30;91.40;;;;;;5021277;28;20109;-44
2023/01/03 07:58:31;;;;;;;11.70;6.68;;;2.30;91.40;;;;;;5022023;28;20026;-46
2023/01/03 08:01:03;;;;;;;13.20;6.97;;;2.40;91.70;;;;;;5015158;28;20030;-45
2023/01/03 08:03:30;;;;;;;15.23;6.45;;;2.50;91.60;;;;;;5023456;28;20029;-45
2023/01/03 08:06:01;;;;;;;16.23;6.85;;;2.60;91.70;;;;;;5023076;28;20049;-43
2023/01/03 08:08:31;;;;;;;12.52;7.18;;;2.50;91.60;;;;;;5024495;28;20443;-44
2023/01/03 08:13:44;;;;;;;10.40;6.90;;;2.60;91.50;;;;;;5025061;28;20041;-45
2023/01/03 08:16:16;;;;;;;12.30;7.28;;;2.60;91.40;;;;;;5028859;28;20026;-46
2023/01/03 08:18:44;;;;;;;13.48;9.20;;;2.70;91.50;;;;;;5028140;28;20431;-44
2023/01/03 08:21:14;;;;;;;18.67;10.35;;;2.70;91.50;;;;;;5036972;28;20120;-46
2023/01/03 08:23:41;;;;;;;15.50;9.93;;;2.70;91.60;;;;;;5046229;28;20025;-46
2023/01/03 08:26:13;;;;;;;17.23;10.88;;;2.80;91.60;;;;;;5032090;28;20439;-49
2023/01/03 08:28:42;;;;;;;20.05;11.88;;;2.90;91.70;;;;;;5022241;28;20033;-48
2023/01/03 08:31:39;;;;;;;13.25;8.95;;;2.90;91.70;;;;;;5028360;28;20140;-47
2023/01/03 08:34:08;;;;;;;14.70;8.38;;;3.00;91.70;;;;;;5019984;28;20049;-50
2023/01/03 08:36:44;;;;;;;14.95;8.77;;;3.00;91.70;;;;;;5023199;28;20079;-54
2023/01/03 08:39:19;;;;;;;21.25;12.95;;;3.10;91.70;;;;;;5022753;28;20124;-51
2023/01/03 08:41:52;;;;;;;16.25;10.70;;;3.20;91.60;;;;;;5022465;28;20103;-53
2023/01/03 08:44:19;;;;;;;12.98;7.97;;;3.30;91.60;;;;;;5016410;28;20071;-50
2023/01/03 08:46:50;;;;;;;11.70;7.25;;;3.30;91.40;;;;;;5029098;28;20029;-49
2023/01/03 08:49:17;;;;;;;15.75;9.10;;;3.30;91.40;;;;;;5031468;28;20021;-47
2023/01/03 08:51:43;;;;;;;17.27;10.85;;;3.40;91.40;;;;;;5028711;28;20063;-50
2023/01/03 08:54:10;;;;;;;17.25;11.07;;;3.40;91.30;;;;;;5029020;28;20065;-46
2023/01/03 08:56:38;;;;;;;15.32;9.30;;;3.30;91.00;;;;;;5024512;28;20071;-47
2023/01/03 08:59:07;;;;;;;12.60;9.40;;;3.30;91.20;;;;;;5020646;28;20099;-48
2023/01/03 09:01:34;;;;;;;16.02;9.65;;;3.40;91.20;;;;;;5023400;28;20068;-47
2023/01/03 09:04:00;;;;;;;16.48;9.30;;;3.40;91.20;;;;;;5031722;28;20531;-46
2023/01/03 09:06:27;;;;;;;17.92;9.27;;;3.40;91.20;;;;;;5029159;28;20045;-47
2023/01/03 09:08:53;;;;;;;16.05;9.90;;;3.50;91.30;;;;;;5030005;28;20115;-49
2023/01/03 09:11:20;;;;;;;15.13;8.90;;;3.60;91.40;;;;;;5032405;28;20427;-46
2023/01/03 09:13:48;;;;;;;14.52;9.27;;;3.60;91.30;;;;;;5031971;28;20053;-50
2023/01/03 09:16:15;;;;;;;15.32;10.55;;;3.70;91.20;;;;;;5032941;28;20569;-49
2023/01/03 09:18:42;;;;;;;16.02;10.10;;;3.80;91.10;;;;;;5033224;28;20104;-47
2023/01/03 09:21:11;;;;;;;18.25;11.05;;;3.80;91.00;;;;;;5029240;28;20076;-49
2023/01/03 09:23:38;;;;;;;23.30;11.88;;;3.90;90.60;;;;;;5030846;28;20026;-49
2023/01/03 09:26:05;;;;;;;17.92;9.32;;;3.90;90.60;;;;;;5029316;28;20047;-49
2023/01/03 09:28:35;;;;;;;19.52;12.07;;;4.00;90.60;;;;;;5040353;28;20029;-51
2023/01/03 09:31:01;;;;;;;21.40;14.68;;;4.10;90.20;;;;;;5030469;28;20304;-49
2023/01/03 09:33:30;;;;;;;24.17;15.70;;;4.10;90.10;;;;;;5031266;28;20021;-48
2023/01/03 09:35:57;;;;;;;16.00;12.32;;;4.20;90.20;;;;;;5030699;28;20111;-45
2023/01/03 09:38:24;;;;;;;15.90;10.57;;;4.20;89.90;;;;;;5032896;28;20110;-49
2023/01/03 09:41:07;;;;;;;19.48;11.10;;;4.20;89.70;;;;;;5030543;28;20088;-47
2023/01/03 09:43:44;;;;;;;18.55;11.57;;;4.20;89.70;;;;;;5030033;28;20033;-47
2023/01/03 09:46:18;;;;;;;17.15;11.23;;;4.20;89.70;;;;;;5029927;28;20025;-44
2023/01/03 09:48:47;;;;;;;19.92;12.15;;;4.20;90.00;;;;;;5025299;28;20037;-46
2023/01/03 10:06:30;;;;;;;14.63;11.30;;;4.60;89.50;;;;;;5016177;28;20099;-46
2023/01/03 10:09:21;;;;;;;18.23;11.25;;;4.60;89.20;;;;;;5036679;28;20029;-46
2023/01/03 10:11:55;;;;;;;19.42;12.85;;;4.70;89.30;;;;;;5030803;28;20104;-45
2023/01/03 10:14:53;;;;;;;20.50;12.27;;;4.70;89.30;;;;;;5036733;28;20032;-44
2023/01/03 10:17:41;;;;;;;19.67;13.35;;;4.80;89.20;;;;;;5027614;28;20033;-44
2023/01/03 10:20:32;;;;;;;20.15;13.07;;;4.70;89.10;;;;;;5026209;28;20044;-46
2023/01/03 10:23:00;;;;;;;17.95;12.77;;;4.70;89.30;;;;;;5021620;28;20104;-45
2023/01/03 10:25:29;;;;;;;23.17;12.85;;;4.80;89.50;;;;;;5026864;28;20370;-49
2023/01/03 10:28:01;;;;;;;17.42;12.77;;;4.80;89.40;;;;;;5027729;28;20025;-46
2023/01/03 10:30:33;;;;;;;17.45;12.98;;;4.70;89.60;;;;;;5022645;28;20094;-46
2023/01/03 10:33:22;;;;;;;24.17;14.55;;;4.70;89.70;;;;;;5023236;28;20044;-45
2023/01/03 10:35:50;;;;;;;19.35;13.70;;;4.70;89.80;;;;;;5025672;28;20048;-44
2023/01/03 10:38:21;;;;;;;22.33;13.82;;;4.70;89.90;;;;;;5017644;28;20087;-46
2023/01/03 10:40:59;;;;;;;22.63;13.55;;;4.80;90.00;;;;;;5029767;28;20026;-43
2023/01/03 10:43:32;;;;;;;22.75;15.35;;;4.80;90.00;;;;;;5042081;28;20030;-46
2023/01/03 10:46:04;;;;;;;18.70;13.38;;;4.80;89.70;;;;;;5032130;28;20034;-45
2023/01/03 10:48:37;;;;;;;23.00;14.98;;;4.80;89.80;;;;;;5034495;28;20037;-44
2023/01/03 10:51:27;;;;;;;22.85;15.15;;;4.80;89.80;;;;;;5029197;28;20037;-46
2023/01/03 10:53:57;;;;;;;21.10;14.73;;;4.80;89.80;;;;;;5034477;28;20109;-46
2023/01/03 10:56:25;;;;;;;;;;;4.90;89.90;;;;;;5033817;28;20036;-46
2023/01/03 10:59:11;;;;;;;20.00;14.25;;;4.90;89.80;;;;;;5032009;28;19988;-46
2023/01/03 11:01:38;;;;;;;23.13;15.32;;;4.90;89.70;;;;;;5021913;28;20367;-45
2023/01/03 11:04:14;;;;;;;22.00;14.63;;;4.90;89.60;;;;;;5026334;28;20033;-44
2023/01/03 11:06:57;;;;;;;22.80;14.35;;;4.90;89.60;;;;;;5033775;28;20117;-47
2023/01/03 11:09:31;;;;;;;19.70;15.18;;;4.90;89.70;;;;;;5018967;28;20048;-47
2023/01/03 11:12:27;;;;;;;20.65;14.43;;;4.90;89.60;;;;;;5026359;28;20026;-44
2023/01/03 11:14:56;;;;;;;20.73;13.88;;;4.90;89.70;;;;;;5025482;28;20087;-46
2023/01/03 11:17:28;;;;;;;20.80;14.02;;;5.00;89.50;;;;;;5023189;28;20095;-44
2023/01/03 11:19:58;;;;;;;18.08;12.60;;;5.00;89.60;;;;;;5021944;28;20037;-44
2023/01/03 11:22:47;;;;;;;19.65;13.07;;;5.00;89.20;;;;;;5032305;28;20049;-49
2023/01/03 11:25:32;;;;;;;;;;;5.10;89.20;;;;;;5034840;28;20097;-44
2023/01/03 11:28:17;;;;;;;19.63;13.02;;;5.10;89.30;;;;;;5033332;28;19951;-44
2023/01/03 11:31:15;;;;;;;26.60;13.52;;;5.20;89.30;;;;;;5032654;28;20025;-43
2023/01/03 11:34:29;;;;;;;19.73;13.18;;;5.20;89.30;;;;;;5018359;28;20086;-48
2023/01/03 11:37:25;;;;;;;21.50;13.55;;;5.20;89.30;;;;;;5046247;28;20446;-46
2023/01/03 11:40:29;;;;;;;18.42;12.68;;;5.20;89.30;;;;;;5031801;28;20128;-47
2023/01/03 11:43:32;;;;;;;19.38;12.27;;;5.20;89.10;;;;;;5033405;28;20347;-46
2023/01/03 11:46:06;;;;;;;14.88;11.18;;;5.20;88.70;;;;;;5016631;28;20038;-49
2023/01/03 11:49:09;;;;;;;16.00;11.85;;;5.10;88.60;;;;;;5038841;28;20033;-45
2023/01/03 11:52:09;;;;;;;18.45;12.27;;;5.10;88.70;;;;;;5032387;28;20025;-45
2023/01/03 11:55:02;;;;;;;21.65;13.63;;;5.00;88.80;;;;;;5021994;28;20342;-49
2023/01/03 11:58:05;;;;;;;19.88;13.50;;;5.00;89.20;;;;;;5038854;28;20369;-47
2023/01/03 12:01:00;;;;;;;16.23;12.52;;;5.00;89.20;;;;;;5029886;28;20507;-45
2023/01/03 12:03:52;;;;;;;17.83;12.75;;;5.00;89.00;;;;;;5021525;28;20040;-45
2023/01/03 12:06:39;;;;;;;20.98;13.68;;;4.90;88.70;;;;;;5016530;28;20045;-45
2023/01/03 12:09:21;;;;;;;18.52;13.48;;;4.70;88.80;;;;;;5028171;28;20053;-48
2023/01/03 12:12:24;;;;;;;22.30;14.90;;;4.70;89.10;;;;;;5026735;28;20033;-47
2023/01/03 12:15:01;;;;;;;19.88;13.55;;;4.50;89.00;;;;;;5032142;28;20359;-47
2023/01/03 12:17:50;;;;;;;20.92;14.38;;;4.50;89.20;;;;;;5039315;28;20048;-46
2023/01/03 12:20:19;;;;;;;22.83;15.38;;;4.40;89.40;;;;;;5034048;28;20113;-48
2023/01/03 12:22:59;;;;;;;24.73;15.85;;;4.40;89.30;;;;;;5030561;28;20063;-51
2023/01/03 12:25:33;;;;;;;20.80;14.35;;;4.40;89.70;;;;;;5020912;28;20443;-45
2023/01/03 12:28:17;;;;;;;21.20;15.10;;;4.50;89.80;;;;;;5030329;28;20052;-44
2023/01/03 12:31:07;;;;;;;22.40;15.18;;;4.40;89.60;;;;;;5030980;28;20022;-47
2023/01/03 12:33:42;;;;;;;26.55;15.38;;;4.20;90.00;;;;;;5017384;28;20041;-50
2023/01/03 12:36:38;;;;;;;26.83;16.25;;;4.10;90.20;;;;;;5022776;28;20034;-45
2023/01/03 12:39:29;;;;;;;31.67;17.98;;;4.10;90.40;;;;;;5022167;28;20025;-47
2023/01/03 12:42:28;;;;;;;29.95;17.40;;;4.20;90.70;;;;;;5030611;28;20084;-46
2023/01/03 12:45:24;;;;;;;38.53;23.60;;;4.20;91.00;;;;;;5029974;28;20044;-46
2023/01/03 12:48:38;;;;;;;36.45;19.20;;;4.20;91.10;;;;;;5040369;28;20045;-45
2023/01/03 12:51:06;;;;;;;30.85;20.08;;;4.30;91.30;;;;;;5029886;28;20409;-45
2023/01/03 12:53:46;;;;;;;30.98;20.75;;;4.40;91.30;;;;;;5026355;28;20407;-49
2023/01/03 12:56:23;;;;;;;32.45;19.77;;;4.40;91.40;;;;;;5034152;28;20482;-45
2023/01/03 12:58:52;;;;;;;28.95;20.23;;;4.50;91.30;;;;;;5031186;28;20029;-45
2023/01/03 13:01:39;;;;;;;28.73;18.73;;;4.50;91.00;;;;;;5029830;28;20049;-47
2023/01/03 13:04:30;;;;;;;28.75;19.05;;;4.50;91.10;;;;;;5030641;28;20068;-46
2023/01/03 13:07:30;;;;;;;31.95;19.05;;;4.50;91.00;;;;;;5025649;28;20493;-47
2023/01/03 13:10:06;;;;;;;29.90;19.30;;;4.50;91.00;;;;;;5018079;28;20045;-47
2023/01/03 13:12:36;;;;;;;26.70;17.95;;;4.60;91.30;;;;;;5036600;28;20041;-45
2023/01/03 13:15:31;;;;;;;26.83;17.55;;;4.70;91.20;;;;;;5026022;28;20037;-46
2023/01/03 13:18:22;;;;;;;26.65;17.77;;;4.80;91.40;;;;;;5031295;28;20021;-46
2023/01/03 13:20:53;;;;;;;26.38;18.35;;;4.80;91.10;;;;;;5030006;28;20335;-45
2023/01/03 13:23:56;;;;;;;28.85;18.00;;;4.80;91.10;;;;;;5014727;28;20534;-45
2023/01/03 13:26:27;;;;;;;29.75;20.45;;;4.90;91.00;;;;;;5031662;28;20021;-44
2023/01/03 13:29:33;;;;;;;28.42;17.27;;;4.90;91.00;;;;;;5029289;28;20026;-50
2023/01/03 13:32:14;;;;;;;25.65;17.13;;;4.90;90.90;;;;;;5032807;28;20379;-45
2023/01/03 13:34:43;;;;;;;25.25;17.13;;;4.90;90.80;;;;;;5031199;28;20030;-47
2023/01/03 13:37:49;;;;;;;29.73;19.60;;;4.80;90.80;;;;;;5029372;28;20037;-44
2023/01/03 13:40:29;;;;;;;27.17;18.98;;;4.90;91.20;;;;;;5012926;28;20336;-45
2023/01/03 13:43:15;;;;;;;31.88;19.35;;;4.90;91.50;;;;;;5030678;28;20037;-46
2023/01/03 13:45:44;;;;;;;29.83;18.95;;;5.00;91.20;;;;;;5031422;28;20033;-46
2023/01/03 13:48:16;;;;;;;28.48;18.20;;;5.00;91.00;;;;;;5030214;28;20022;-46
2023/01/03 13:51:09;;;;;;;28.83;17.80;;;4.90;90.90;;;;;;5029102;28;20018;-44
2023/01/03 13:53:50;;;;;;;28.75;20.40;;;4.90;91.10;;;;;;5051865;28;20396;-44
2023/01/03 13:56:43;;;;;;;29.08;19.98;;;4.90;91.20;;;;;;5029956;28;20030;-44
2023/01/03 13:59:16;;;;;;;29.25;20.50;;;4.90;91.20;;;;;;5029306;28;20462;-47
2023/01/03 14:02:16;;;;;;;32.72;18.20;;;5.00;91.30;;;;;;5043981;28;20029;-49
2023/01/03 14:04:44;;;;;;;28.42;19.05;;;5.00;91.30;;;;;;5044575;28;20476;-46
2023/01/03 14:07:47;;;;;;;29.70;19.30;;;5.00;91.40;;;;;;5018812;28;20070;-46
2023/01/03 14:10:43;;;;;;;26.98;18.88;;;5.00;91.60;;;;;;5018291;28;20096;-51
2023/01/03 14:13:42;;;;;;;29.15;19.80;;;5.00;91.80;;;;;;5028100;28;20060;-52
2023/01/03 14:16:26;;;;;;;30.85;20.95;;;5.00;91.90;;;;;;5034810;28;20032;-46
2023/01/03 14:19:32;;;;;;;33.90;20.77;;;5.00;92.10;;;;;;5029208;28;20030;-46
2023/01/03 14:22:19;;;;;;;36.63;22.92;;;5.10;92.20;;;;;;5027344;28;20063;-45
2023/01/03 14:24:58;;;;;;;32.55;21.27;;;5.10;92.30;;;;;;5037147;28;20504;-47
2023/01/03 14:27:35;;;;;;;34.38;23.52;;;5.10;92.30;;;;;;5026099;28;20034;-46
2023/01/03 14:30:05;;;;;;;34.88;21.70;;;5.00;92.60;;;;;;5029318;28;20034;-50
2023/01/03 14:32:34;;;;;;;;;;;5.10;92.60;;;;;;5024833;28;20404;-45
2023/01/03 14:35:03;;;;;;;34.85;22.13;;;5.10;92.70;;;;;;5026904;28;20338;-45